Terminal Aerodrome Forecast
Issued by NWS

Home | Current Version | Previous Version | Text Only | Print | Product List | Glossary On
Versions: 1 2 3 4 5 6 7 8 9 10 11 12 13 14 15 16 17 18 19 20 21 22 23 24 25
763
FTUS43 KDLH 211741
TAFHYR
TAF
KHYR 211741Z 2118/2218 21009KT P6SM VCSH SCT015 BKN025 OVC060
      TEMPO 2118/2122 5SM -SHRA BR BKN015 BKN050
     FM212200 25007KT 5SM BR VCSH BKN012
     FM220000 26006KT 5SM BR VCSH OVC008
     FM221400 25007KT P6SM OVC008
     FM221600 25007KT P6SM OVC015=

USA.gov is the U.S. government's official web portal to all federal, state and local government web resources and services.